Time;durP1;ratioP1;P1;durP2;ratioP2;P2;SDS_P1;SDS_P2;PMS_P1;PMS_P2;Temp;Humidity;BMP_temperature;BMP_pressure;BME280_temperature;BME280_humidity;BME280_pressure;Samples;Min_cycle;Max_cycle;Signal;HPM_P1;HPM_P2
2021/05/08 00:01:00;;;;;;;3.37;3.00;;;;;;;2.38;62.53;95862.25;5054115;28;20177;-77
2021/05/08 00:03:25;;;;;;;4.77;3.10;;;;;;;2.46;62.42;95860.06;5072040;28;20551;-77
2021/05/08 00:05:51;;;;;;;4.73;3.23;;;;;;;2.48;61.64;95864.19;5071602;28;20205;-77
2021/05/08 00:08:16;;;;;;;4.00;3.10;;;;;;;2.47;62.10;95862.56;5071874;28;20195;-77
2021/05/08 00:10:42;;;;;;;2.97;2.67;;;;;;;2.59;61.78;95860.19;5070895;28;20182;-78
2021/05/08 00:13:07;;;;;;;5.03;3.33;;;;;;;2.47;62.29;95857.44;5070732;28;20619;-77
2021/05/08 00:15:33;;;;;;;3.77;2.97;;;;;;;2.44;62.46;95857.59;5070121;28;20266;-77
2021/05/08 00:17:58;;;;;;;6.50;3.33;;;;;;;2.51;61.64;95851.19;5070687;28;20762;-77
2021/05/08 00:20:23;;;;;;;4.17;3.20;;;;;;;2.43;62.56;95855.94;5071868;28;20252;-77
2021/05/08 00:22:49;;;;;;;4.03;3.10;;;;;;;2.53;61.80;95849.34;5071882;28;20180;-76
2021/05/08 00:25:14;;;;;;;4.07;3.30;;;;;;;2.58;61.14;95849.09;5069902;28;20183;-77
2021/05/08 00:27:39;;;;;;;6.47;3.27;;;;;;;2.60;61.08;95854.13;5070538;28;20200;-77
2021/05/08 00:30:06;;;;;;;5.93;3.93;;;;;;;2.71;60.65;95856.88;5070460;28;20254;-78
2021/05/08 00:32:32;;;;;;;4.37;3.03;;;;;;;2.60;61.24;95851.56;5053550;28;20201;-78
2021/05/08 00:34:58;;;;;;;3.30;2.77;;;;;;;2.53;61.47;95849.34;5071291;28;20700;-77
2021/05/08 00:37:23;;;;;;;3.87;3.20;;;;;;;2.49;61.63;95857.34;5053588;28;20297;-78
2021/05/08 00:39:50;;;;;;;3.67;3.07;;;;;;;2.41;62.30;95850.09;5069514;28;20174;-77
2021/05/08 00:42:15;;;;;;;4.23;3.20;;;;;;;2.52;61.36;95849.44;5070269;28;20203;-77
2021/05/08 00:44:40;;;;;;;4.47;2.57;;;;;;;2.43;62.10;95852.56;5069910;28;20202;-77
2021/05/08 00:47:05;;;;;;;5.50;3.20;;;;;;;2.33;62.50;95847.16;5071538;28;20227;-77
2021/05/08 00:49:31;;;;;;;4.37;3.37;;;;;;;2.31;62.59;95846.44;5070383;28;20216;-77
2021/05/08 00:51:59;;;;;;;5.40;3.33;;;;;;;2.43;61.97;95848.25;5053379;28;20281;-77
2021/05/08 00:54:24;;;;;;;4.23;3.37;;;;;;;2.37;62.00;95848.63;5071008;28;20669;-77
2021/05/08 00:56:49;;;;;;;3.73;3.00;;;;;;;2.32;62.28;95852.38;5069540;28;20279;-77
2021/05/08 00:59:15;;;;;;;4.53;3.10;;;;;;;2.32;62.12;95849.81;5070230;28;20188;-77
2021/05/08 01:01:41;;;;;;;5.20;3.03;;;;;;;2.24;62.30;95856.22;5070389;28;20170;-78
2021/05/08 01:04:06;;;;;;;4.70;3.17;;;;;;;2.27;62.25;95850.91;5053442;28;20267;-76
2021/05/08 01:06:33;;;;;;;4.30;2.90;;;;;;;2.25;62.37;95847.59;5052812;28;20232;-77
2021/05/08 01:08:59;;;;;;;3.50;2.97;;;;;;;2.24;62.16;95848.53;5053637;28;20200;-76
2021/05/08 01:11:24;;;;;;;2.97;2.67;;;;;;;2.27;62.07;95850.06;5070149;28;20650;-76
2021/05/08 01:13:50;;;;;;;6.13;3.20;;;;;;;2.34;61.57;95848.81;5069862;28;20313;-76
2021/05/08 01:16:15;;;;;;;3.17;2.87;;;;;;;2.32;62.01;95848.06;5070445;28;20522;-77
2021/05/08 01:18:41;;;;;;;3.63;2.97;;;;;;;2.22;62.30;95842.66;5070284;28;20187;-75
2021/05/08 01:21:14;;;;;;;4.47;3.20;;;;;;;2.31;62.13;95850.72;5070057;28;20177;-77
2021/05/08 01:23:40;;;;;;;4.23;3.57;;;;;;;2.27;62.19;95844.94;5053429;28;20238;-77
2021/05/08 01:26:05;;;;;;;6.53;3.50;;;;;;;2.31;62.02;95841.31;5069146;28;20598;-76
2021/05/08 01:28:30;;;;;;;3.57;2.90;;;;;;;2.22;62.10;95839.28;5070041;28;20177;-76
2021/05/08 01:30:56;;;;;;;4.30;3.10;;;;;;;2.21;61.94;95837.63;5069839;28;20246;-76
2021/05/08 01:33:21;;;;;;;3.00;2.77;;;;;;;2.11;62.51;95829.63;5070961;28;20238;-77
2021/05/08 01:35:46;;;;;;;5.93;3.00;;;;;;;2.13;62.19;95829.56;5069670;28;20191;-76
2021/05/08 01:38:12;;;;;;;4.50;2.83;;;;;;;2.13;62.26;95827.84;5068083;28;20199;-76
2021/05/08 01:40:40;;;;;;;4.87;3.13;;;;;;;2.15;62.29;95825.19;5052940;28;20182;-77
2021/05/08 01:43:05;;;;;;;3.63;2.87;;;;;;;2.08;62.33;95819.56;5070112;28;20211;-77
2021/05/08 01:45:30;;;;;;;7.27;2.97;;;;;;;2.05;62.96;95817.22;5052546;28;20212;-77
2021/05/08 01:47:56;;;;;;;3.23;2.90;;;;;;;1.95;63.00;95822.03;5071063;28;20261;-77
2021/05/08 01:50:23;;;;;;;4.00;3.10;;;;;;;2.00;63.12;95821.75;5070926;28;20585;-77
2021/05/08 01:52:49;;;;;;;3.83;2.97;;;;;;;1.97;63.30;95820.22;5069679;28;20193;-76
2021/05/08 01:55:26;;;;;;;3.80;2.90;;;;;;;2.01;62.99;95822.59;5069225;28;20190;-76
2021/05/08 01:57:57;;;;;;;5.07;3.10;;;;;;;1.92;63.25;95827.31;5069879;28;20197;-77
2021/05/08 02:00:27;;;;;;;3.80;3.07;;;;;;;1.85;63.53;95817.50;5069643;28;20184;-76
2021/05/08 02:02:54;;;;;;;6.00;3.20;;;;;;;1.86;63.49;95814.06;5069841;28;20181;-76
2021/05/08 02:05:20;;;;;;;3.63;2.97;;;;;;;1.79;63.63;95812.75;5069112;28;20187;-77
2021/05/08 02:07:45;;;;;;;3.83;3.17;;;;;;;1.88;62.92;95815.63;5070608;28;20191;-77
2021/05/08 02:10:12;;;;;;;5.13;2.70;;;;;;;1.93;63.06;95805.09;5056257;28;20552;-77
2021/05/08 02:12:38;;;;;;;4.90;3.00;;;;;;;1.87;62.86;95800.34;5056307;28;20552;-77
2021/05/08 02:15:15;;;;;;;5.27;3.07;;;;;;;1.83;63.12;95796.28;5072541;28;20185;-77
2021/05/08 02:17:40;;;;;;;3.77;2.77;;;;;;;1.90;62.74;95797.59;5072977;28;20201;-76
2021/05/08 02:20:12;;;;;;;3.97;3.40;;;;;;;1.91;62.82;95796.69;5073169;28;20200;-77
2021/05/08 02:22:37;;;;;;;4.27;3.23;;;;;;;1.86;63.13;95794.41;5072861;28;20182;-76
2021/05/08 02:25:04;;;;;;;5.50;3.50;;;;;;;1.90;62.75;95795.03;5072363;28;20177;-76
2021/05/08 02:27:30;;;;;;;3.37;2.87;;;;;;;1.85;62.96;95802.97;5074074;28;20205;-77
2021/05/08 02:29:55;;;;;;;6.10;3.63;;;;;;;1.82;62.70;95803.16;5072637;28;20191;-77
2021/05/08 02:32:20;;;;;;;3.23;2.90;;;;;;;1.81;62.70;95798.13;5072777;28;20228;-76
2021/05/08 02:34:46;;;;;;;5.17;3.10;;;;;;;1.81;62.66;95798.13;5055561;28;20187;-77
2021/05/08 02:37:11;;;;;;;3.10;2.80;;;;;;;1.84;62.47;95793.63;5072963;28;20276;-76
2021/05/08 02:39:36;;;;;;;3.87;2.67;;;;;;;2.01;62.14;95789.28;5071340;28;20540;-77
2021/05/08 02:42:02;;;;;;;4.37;2.80;;;;;;;1.94;62.15;95793.94;5055902;28;20222;-76
2021/05/08 02:44:28;;;;;;;4.40;3.53;;;;;;;1.87;62.01;95790.91;5071610;28;20191;-76
2021/05/08 02:46:53;;;;;;;3.97;3.40;;;;;;;1.92;62.04;95799.16;5072678;28;20199;-77
2021/05/08 02:49:18;;;;;;;5.67;3.70;;;;;;;1.91;61.87;95792.38;5072765;28;20180;-77
2021/05/08 02:51:44;;;;;;;5.60;3.53;;;;;;;2.03;60.79;95805.38;5055895;28;20185;-77
2021/05/08 02:54:09;;;;;;;4.07;3.00;;;;;;;1.96;61.54;95804.94;5072380;28;20707;-77
2021/05/08 02:56:34;;;;;;;6.27;3.33;;;;;;;1.99;61.53;95802.19;5073193;28;20197;-77
2021/05/08 02:58:59;;;;;;;6.07;3.53;;;;;;;2.04;61.21;95795.06;5072425;28;20206;-77
2021/05/08 03:01:25;;;;;;;5.20;3.43;;;;;;;1.98;61.30;95797.97;5072469;28;20174;-77
2021/05/08 03:03:50;;;;;;;4.13;2.90;;;;;;;1.96;61.63;95798.06;5072341;28;20646;-77
2021/05/08 03:06:15;;;;;;;4.77;3.30;;;;;;;1.97;61.31;95797.16;5071771;28;20605;-77
2021/05/08 03:08:41;;;;;;;4.17;3.27;;;;;;;2.03;61.87;95798.50;5073464;28;20177;-77
2021/05/08 03:11:06;;;;;;;4.63;3.47;;;;;;;1.98;61.86;95785.16;5072471;28;20242;-77
2021/05/08 03:13:31;;;;;;;3.67;2.70;;;;;;;1.98;61.66;95780.88;5055694;28;20201;-77
2021/05/08 03:15:57;;;;;;;6.67;3.27;;;;;;;1.94;62.13;95773.44;5054677;28;20189;-77
2021/05/08 03:18:22;;;;;;;3.10;2.77;;;;;;;2.04;61.63;95782.25;5054992;28;20181;-77
2021/05/08 03:20:47;;;;;;;6.70;3.60;;;;;;;2.05;61.40;95773.66;5071831;28;20180;-77
2021/05/08 03:23:12;;;;;;;5.23;3.57;;;;;;;2.03;61.64;95779.75;5071990;28;20180;-77
2021/05/08 03:25:38;;;;;;;3.07;2.77;;;;;;;2.11;61.64;95777.56;5072567;28;20189;-77
2021/05/08 03:28:03;;;;;;;4.73;3.43;;;;;;;2.03;61.79;95772.06;5072871;28;20200;-76
2021/05/08 03:30:29;;;;;;;4.07;2.93;;;;;;;2.03;61.83;95761.84;5072802;28;20193;-77
2021/05/08 03:32:54;;;;;;;5.07;3.67;;;;;;;2.02;61.97;95762.75;5072837;28;20218;-77
2021/05/08 03:35:19;;;;;;;3.93;3.20;;;;;;;1.98;62.53;95762.94;5054477;28;20181;-78
2021/05/08 03:37:45;;;;;;;4.73;3.20;;;;;;;2.02;62.28;95770.44;5072057;28;20667;-76
2021/05/08 03:40:10;;;;;;;11.43;3.30;;;;;;;2.13;61.81;95778.34;5069909;28;20178;-76
2021/05/08 03:42:36;;;;;;;4.47;2.83;;;;;;;2.06;62.09;95774.47;5071537;28;20597;-78
2021/05/08 03:45:01;;;;;;;6.33;4.03;;;;;;;1.98;62.44;95774.94;5054569;28;20249;-76
2021/05/08 03:47:26;;;;;;;4.73;2.90;;;;;;;2.04;62.71;95769.44;5072754;28;20227;-77
2021/05/08 03:49:52;;;;;;;4.13;3.53;;;;;;;2.06;62.87;95775.31;5071577;28;20185;-77
2021/05/08 03:52:17;;;;;;;5.33;2.70;;;;;;;2.09;62.93;95780.22;5054789;28;20222;-77
2021/05/08 03:54:42;;;;;;;3.43;2.50;;;;;;;2.10;62.94;95776.75;5054170;28;20192;-75
2021/05/08 03:57:08;;;;;;;3.00;2.40;;;;;;;2.13;62.81;95770.66;5071017;28;20205;-77
2021/05/08 03:59:33;;;;;;;3.97;2.67;;;;;;;2.10;62.83;95768.25;5071548;28;20236;-77
2021/05/08 04:01:59;;;;;;;3.50;2.57;;;;;;;2.11;63.00;95762.22;5071443;28;20271;-77
2021/05/08 04:04:24;;;;;;;3.13;2.57;;;;;;;2.24;62.93;95763.97;5054103;28;20536;-77
2021/05/08 04:06:49;;;;;;;5.17;2.90;;;;;;;2.35;62.68;95765.88;5071197;28;20280;-77
2021/05/08 04:09:15;;;;;;;3.30;2.83;;;;;;;2.46;62.18;95763.47;5072503;28;20186;-77
2021/05/08 04:11:40;;;;;;;4.27;2.43;;;;;;;2.57;62.23;95760.28;5070868;28;20216;-77
2021/05/08 04:14:06;;;;;;;4.50;2.80;;;;;;;2.66;61.84;95764.03;5054361;28;20209;-77
2021/05/08 04:16:31;;;;;;;4.83;2.87;;;;;;;2.68;62.18;95767.31;5070390;28;20196;-77
2021/05/08 04:18:58;;;;;;;4.17;2.80;;;;;;;2.79;61.53;95764.91;5054321;28;20567;-77
2021/05/08 04:21:23;;;;;;;4.37;2.77;;;;;;;2.80;61.91;95761.41;5071082;28;20181;-78
2021/05/08 04:23:48;;;;;;;5.33;2.50;;;;;;;2.92;61.33;95750.41;5071074;28;20177;-77
2021/05/08 04:26:14;;;;;;;3.87;2.53;;;;;;;3.06;60.50;95750.34;5069952;28;20189;-78
2021/05/08 04:28:39;;;;;;;5.70;2.87;;;;;;;3.11;60.57;95750.88;5070985;28;20236;-77
2021/05/08 04:31:04;;;;;;;4.63;2.80;;;;;;;3.12;60.69;95756.84;5069514;28;20228;-76
2021/05/08 04:33:29;;;;;;;4.67;3.00;;;;;;;3.23;60.15;95748.47;5070772;28;20209;-77
2021/05/08 04:35:55;;;;;;;4.60;2.80;;;;;;;3.23;60.29;95756.97;5071550;28;20177;-78
2021/05/08 04:38:20;;;;;;;3.20;2.83;;;;;;;3.38;59.69;95752.63;5069045;28;20205;-76
2021/05/08 04:40:45;;;;;;;3.00;2.40;;;;;;;3.46;59.59;95750.38;5071250;28;20175;-78
2021/05/08 04:43:11;;;;;;;4.43;2.37;;;;;;;3.62;58.87;95745.91;5070873;28;20175;-76
2021/05/08 04:45:36;;;;;;;3.53;2.20;;;;;;;3.72;58.86;95750.44;5071765;28;20177;-78
2021/05/08 04:48:01;;;;;;;3.33;1.97;;;;;;;4.87;55.53;95751.97;5071085;28;20727;-78
2021/05/08 04:50:27;;;;;;;2.63;2.30;;;;;;;6.60;51.41;95768.41;5071199;28;20661;-75
2021/05/08 04:52:53;;;;;;;4.50;2.00;;;;;;;8.00;46.30;95758.94;5054086;28;20673;-76
2021/05/08 04:55:19;;;;;;;4.10;1.83;;;;;;;9.74;42.63;95764.69;5053267;28;20223;-76
2021/05/08 04:57:44;;;;;;;2.03;1.73;;;;;;;10.60;39.97;95769.88;5069970;28;20201;-76
2021/05/08 05:00:11;;;;;;;2.70;2.10;;;;;;;12.23;36.77;95767.19;5072401;28;20521;-75
2021/05/08 05:02:37;;;;;;;3.17;2.00;;;;;;;12.18;35.73;95766.81;5070780;28;20174;-76
2021/05/08 05:05:02;;;;;;;4.30;2.30;;;;;;;12.30;35.45;95770.00;5071210;28;20189;-78
2021/05/08 05:07:27;;;;;;;2.63;2.00;;;;;;;12.42;36.32;95771.38;5069578;28;20204;-75
2021/05/08 05:09:53;;;;;;;3.77;1.90;;;;;;;12.47;35.32;95769.13;5053944;28;20591;-76
2021/05/08 05:12:18;;;;;;;2.60;1.70;;;;;;;12.27;34.57;95767.69;5069937;28;20197;-76
2021/05/08 05:14:43;;;;;;;3.42;1.70;;;;;;;12.57;35.14;95771.63;5070679;28;20177;-76
2021/05/08 05:17:09;;;;;;;3.33;2.08;;;;;;;12.90;33.78;95777.84;5071078;28;20250;-76
2021/05/08 05:19:34;;;;;;;3.22;1.90;;;;;;;13.93;33.29;95781.84;5069830;28;20187;-76
2021/05/08 05:21:59;;;;;;;2.08;1.67;;;;;;;14.56;32.01;95775.16;5053044;28;20755;-75
2021/05/08 05:24:25;;;;;;;4.32;1.77;;;;;;;14.15;31.35;95777.78;5069509;28;20173;-76
2021/05/08 05:26:51;;;;;;;2.17;1.73;;;;;;;13.95;32.46;95781.69;5069961;28;20197;-77
2021/05/08 05:29:16;;;;;;;4.72;2.38;;;;;;;13.50;32.71;95782.94;5053415;28;20173;-77
2021/05/08 05:31:41;;;;;;;2.42;1.70;;;;;;;12.50;34.60;95774.03;5071158;28;20185;-77
2021/05/08 05:34:06;;;;;;;5.57;1.90;;;;;;;11.92;36.28;95764.16;5069957;28;20205;-76
2021/05/08 05:36:32;;;;;;;2.50;1.77;;;;;;;11.59;35.65;95763.88;5069111;28;20535;-77
2021/05/08 05:38:59;;;;;;;2.58;1.77;;;;;;;12.20;35.85;95770.09;5051552;28;20216;-76
2021/05/08 05:41:24;;;;;;;2.08;1.60;;;;;;;13.58;33.13;95759.47;5070485;28;20199;-76
2021/05/08 05:43:49;;;;;;;3.17;2.00;;;;;;;13.74;32.38;95764.72;5073748;28;20652;-77
2021/05/08 05:46:15;;;;;;;2.92;1.85;;;;;;;14.09;31.28;95771.41;5056573;28;20724;-77
2021/05/08 05:48:40;;;;;;;2.92;1.70;;;;;;;14.32;31.71;95774.19;5074782;28;20189;-77
2021/05/08 05:51:06;;;;;;;1.90;1.45;;;;;;;15.15;30.24;95773.00;5074043;28;20177;-77
2021/05/08 05:53:32;;;;;;;1.92;1.60;;;;;;;14.77;30.35;95767.59;5075213;28;20209;-78
2021/05/08 05:55:57;;;;;;;1.92;1.65;;;;;;;15.33;29.52;95775.38;5073657;28;20187;-80
2021/05/08 05:58:22;;;;;;;3.30;1.90;;;;;;;16.33;28.42;95768.31;5073791;28;20180;-76
2021/05/08 06:00:48;;;;;;;2.70;1.80;;;;;;;16.70;27.62;95783.25;5057896;28;20181;-78
2021/05/08 06:03:13;;;;;;;4.07;1.90;;;;;;;15.75;28.79;95777.63;5058158;28;20173;-77
2021/05/08 06:05:39;;;;;;;3.05;1.85;;;;;;;16.52;28.26;95782.72;5075192;28;20669;-77
2021/05/08 06:08:04;;;;;;;3.28;2.10;;;;;;;16.29;27.75;95786.22;5073564;28;20235;-78
2021/05/08 06:10:29;;;;;;;2.67;1.60;;;;;;;17.54;26.17;95791.59;5074714;28;20174;-77
2021/05/08 06:12:55;;;;;;;3.17;1.67;;;;;;;16.79;27.47;95789.25;5073852;28;20213;-76
2021/05/08 06:15:20;;;;;;;2.22;1.80;;;;;;;17.18;26.09;95791.56;5073313;28;20234;-78
2021/05/08 06:17:45;;;;;;;3.55;1.58;;;;;;;17.64;26.07;95780.81;5074269;28;20564;-78
2021/05/08 06:20:11;;;;;;;1.90;1.70;;;;;;;17.73;25.12;95785.78;5074458;28;20176;-78
2021/05/08 06:22:36;;;;;;;2.05;1.70;;;;;;;18.02;25.88;95786.66;5073758;28;20588;-77
2021/05/08 06:25:02;;;;;;;2.67;1.65;;;;;;;18.00;25.64;95786.06;5073375;28;20185;-77
2021/05/08 06:27:28;;;;;;;4.45;2.08;;;;;;;17.46;26.28;95796.97;5075551;28;20212;-78
2021/05/08 06:29:53;;;;;;;1.70;1.50;;;;;;;18.72;24.57;95799.00;5086630;28;20242;-77
2021/05/08 06:32:19;;;;;;;2.58;1.58;;;;;;;18.18;25.38;95796.94;5071232;28;20223;-78
2021/05/08 06:34:44;;;;;;;3.10;1.75;;;;;;;17.81;26.02;95798.81;5071731;28;20184;-78
2021/05/08 06:37:09;;;;;;;2.63;1.90;;;;;;;17.60;26.40;95785.63;5074068;28;20193;-76
2021/05/08 06:39:35;;;;;;;2.35;1.70;;;;;;;16.34;27.79;95783.91;5075048;28;20545;-77
2021/05/08 06:42:00;;;;;;;2.03;1.70;;;;;;;16.78;27.34;95783.16;5073280;28;20184;-76
2021/05/08 06:44:26;;;;;;;3.33;1.88;;;;;;;17.03;27.32;95782.88;5072685;28;20637;-78
2021/05/08 06:46:52;;;;;;;2.25;1.63;;;;;;;17.62;26.07;95777.56;5072862;28;20193;-78
2021/05/08 06:49:17;;;;;;;3.92;1.70;;;;;;;17.17;26.90;95775.03;5073116;28;20169;-78
2021/05/08 06:51:43;;;;;;;2.38;1.67;;;;;;;18.39;25.60;95775.09;5073617;28;20424;-77
2021/05/08 06:54:08;;;;;;;2.05;1.60;;;;;;;17.65;26.88;95771.91;5055222;28;20720;-77
2021/05/08 06:56:33;;;;;;;2.13;1.42;;;;;;;18.31;25.45;95770.78;5072332;28;20201;-78
2021/05/08 06:58:58;;;;;;;4.55;1.80;;;;;;;17.19;25.33;95767.78;5072874;28;20169;-79
2021/05/08 07:01:24;;;;;;;3.75;1.50;;;;;;;16.83;27.74;95766.88;5055330;28;20188;-75
2021/05/08 07:03:49;;;;;;;2.65;1.80;;;;;;;16.68;27.43;95765.06;5073154;28;20522;-77
2021/05/08 07:06:15;;;;;;;2.00;1.65;;;;;;;15.47;29.42;95758.97;5069870;28;20181;-80
2021/05/08 07:08:40;;;;;;;2.58;1.92;;;;;;;14.93;29.29;95771.94;5055199;28;20215;-76
2021/05/08 07:11:05;;;;;;;1.98;1.67;;;;;;;15.44;29.98;95765.34;5071784;28;20248;-78
2021/05/08 07:13:31;;;;;;;4.70;2.23;;;;;;;15.77;29.53;95767.78;5054815;28;20213;-77
2021/05/08 07:15:56;;;;;;;3.37;1.93;;;;;;;15.92;28.57;95766.06;5071528;28;20184;-82
2021/05/08 07:18:23;;;;;;;3.57;1.90;;;;;;;15.23;29.40;95763.34;5072097;28;20731;-80
2021/05/08 07:20:48;;;;;;;2.40;1.60;;;;;;;14.72;29.70;95769.88;5071610;28;20181;-80
2021/05/08 07:23:14;;;;;;;2.83;1.80;;;;;;;14.01;31.81;95774.03;5053768;28;20211;-77
2021/05/08 07:25:39;;;;;;;2.50;1.87;;;;;;;13.68;31.08;95767.97;5071526;28;20552;-79
2021/05/08 07:28:08;;;;;;;3.30;1.90;;;;;;;13.43;31.87;95769.75;5071941;28;20201;-80
2021/05/08 07:30:34;;;;;;;2.97;1.60;;;;;;;13.29;32.78;95772.94;5071568;28;20573;-81
2021/05/08 07:33:00;;;;;;;3.23;1.90;;;;;;;13.04;33.19;95772.81;5054994;28;20308;-81
2021/05/08 07:35:25;;;;;;;3.47;2.10;;;;;;;12.73;34.02;95771.72;5071819;28;20641;-80
2021/05/08 07:37:50;;;;;;;3.20;1.90;;;;;;;13.12;33.15;95768.63;5054602;28;20205;-81
2021/05/08 07:40:16;;;;;;;2.90;1.53;;;;;;;12.51;34.92;95765.25;5056105;28;20529;-80
2021/05/08 07:42:41;;;;;;;4.10;1.63;;;;;;;12.56;34.53;95765.59;5057341;28;20531;-80
2021/05/08 07:45:07;;;;;;;3.37;1.90;;;;;;;13.08;34.27;95762.91;5075642;28;20208;-80
2021/05/08 07:47:32;;;;;;;3.13;1.90;;;;;;;12.79;35.78;95771.06;5072140;28;20288;-79
2021/05/08 07:49:57;;;;;;;2.47;1.60;;;;;;;12.86;35.11;95769.50;5071874;28;20178;-79
2021/05/08 07:52:23;;;;;;;2.50;2.00;;;;;;;12.85;35.49;95764.44;5071853;28;20193;-78
2021/05/08 07:54:48;;;;;;;2.13;1.67;;;;;;;12.66;36.09;95768.91;5071302;28;20185;-79
2021/05/08 07:57:13;;;;;;;3.30;1.73;;;;;;;12.52;37.60;95761.66;5071953;28;20201;-78
2021/05/08 07:59:39;;;;;;;2.73;1.77;;;;;;;12.33;37.37;95767.06;5072610;28;20180;-79
2021/05/08 08:02:04;;;;;;;2.33;1.63;;;;;;;12.31;37.56;95769.03;5071902;28;20215;-78
2021/05/08 08:04:30;;;;;;;2.13;1.93;;;;;;;12.45;36.78;95765.84;5052234;28;20181;-79
2021/05/08 08:06:55;;;;;;;2.17;1.50;;;;;;;12.34;37.02;95756.50;5071716;28;20197;-79
2021/05/08 08:09:20;;;;;;;1.87;1.43;;;;;;;12.31;37.92;95769.03;5072932;28;20178;-79
2021/05/08 08:11:46;;;;;;;2.13;1.50;;;;;;;12.15;38.92;95754.91;5055130;28;20189;-79
2021/05/08 08:14:11;;;;;;;2.40;1.67;;;;;;;12.17;39.20;95744.34;5054371;28;20703;-79
2021/05/08 08:16:37;;;;;;;3.10;1.37;;;;;;;12.19;39.11;95751.06;5070930;28;20193;-78
2021/05/08 08:19:02;;;;;;;1.50;1.37;;;;;;;12.18;39.17;95767.63;5072035;28;20203;-79
2021/05/08 08:21:28;;;;;;;4.37;1.60;;;;;;;12.62;39.27;95761.53;5071833;28;20181;-78
2021/05/08 08:23:53;;;;;;;1.87;1.60;;;;;;;12.67;38.57;95760.13;5071079;28;20181;-79
2021/05/08 08:26:19;;;;;;;2.17;1.33;;;;;;;12.52;38.66;95756.44;5070261;28;20201;-79
2021/05/08 08:28:44;;;;;;;2.23;1.70;;;;;;;12.86;37.73;95760.84;5054397;28;20181;-80
2021/05/08 08:31:09;;;;;;;1.77;1.40;;;;;;;13.03;37.55;95750.34;5054705;28;20197;-80
2021/05/08 08:33:35;;;;;;;1.67;1.27;;;;;;;13.28;36.78;95742.63;5054614;28;20216;-79
2021/05/08 08:36:00;;;;;;;2.97;1.40;;;;;;;13.36;35.79;95744.44;5071017;28;20233;-78
2021/05/08 08:38:26;;;;;;;1.70;1.50;;;;;;;13.47;34.78;95758.00;5072399;28;20181;-79
2021/05/08 08:40:51;;;;;;;2.70;1.50;;;;;;;13.54;35.18;95753.78;5070975;28;20192;-79
2021/05/08 08:43:16;;;;;;;2.70;1.57;;;;;;;13.60;35.72;95742.69;5071198;28;20198;-78
2021/05/08 08:45:43;;;;;;;3.13;1.63;;;;;;;13.16;34.96;95742.06;5053947;28;20560;-79
2021/05/08 08:48:09;;;;;;;4.27;1.40;;;;;;;13.60;35.27;95739.25;5054606;28;20209;-79
2021/05/08 08:50:37;;;;;;;2.83;1.60;;;;;;;14.05;33.64;95743.19;5070812;28;20181;-79
2021/05/08 08:53:04;;;;;;;2.80;1.30;;;;;;;14.32;34.17;95755.91;5070950;28;20201;-78
2021/05/08 08:55:31;;;;;;;1.40;1.20;;;;;;;13.92;33.44;95740.25;5053239;28;20223;-79
2021/05/08 08:57:57;;;;;;;2.57;1.40;;;;;;;13.95;34.26;95743.34;5073183;28;20217;-79
2021/05/08 09:00:22;;;;;;;2.03;1.40;;;;;;;13.93;34.39;95747.91;5081869;28;20629;-79
2021/05/08 09:02:51;;;;;;;1.80;1.27;;;;;;;13.26;34.40;95737.56;5072145;28;20200;-77
2021/05/08 09:05:23;;;;;;;1.93;1.30;;;;;;;14.12;33.99;95736.31;5090499;28;20263;-78
2021/05/08 09:07:49;;;;;;;2.33;1.20;;;;;;;14.03;33.81;95732.09;5074226;28;20223;-79
2021/05/08 09:10:34;;;;;;;2.30;1.23;;;;;;;14.22;33.62;95731.72;5076030;28;20184;-82
2021/05/08 09:13:03;;;;;;;1.70;1.53;;;;;;;14.23;32.82;95735.19;5091195;28;20216;-79
2021/05/08 09:15:33;;;;;;;1.63;1.37;;;;;;;14.06;32.23;95727.38;5090676;28;20169;-78
2021/05/08 09:18:00;;;;;;;2.07;1.10;;;;;;;13.59;32.95;95721.97;5095660;28;20196;-78
2021/05/08 09:20:40;;;;;;;3.47;2.00;;;;;;;13.97;34.00;95727.53;5095913;28;20181;-78
2021/05/08 09:23:05;;;;;;;1.50;1.40;;;;;;;14.01;33.76;95724.41;5078714;28;20176;-78
2021/05/08 09:25:30;;;;;;;1.67;1.20;;;;;;;14.47;33.37;95726.50;5078053;28;20191;-76
2021/05/08 09:27:57;;;;;;;2.30;1.40;;;;;;;14.25;34.61;95726.19;5095476;28;20695;-78
2021/05/08 09:30:23;;;;;;;2.30;1.37;;;;;;;14.50;34.20;95726.19;5079098;28;20191;-78
2021/05/08 09:32:58;;;;;;;2.87;1.30;;;;;;;14.70;34.63;95724.81;5077886;28;20204;-78
2021/05/08 09:35:26;;;;;;;1.67;1.20;;;;;;;14.51;35.05;95715.56;5094553;28;20181;-77
2021/05/08 09:38:11;;;;;;;2.83;1.20;;;;;;;14.90;33.99;95725.22;5095250;28;20193;-77
2021/05/08 09:40:38;;;;;;;3.60;1.37;;;;;;;14.66;34.25;95719.09;5095302;28;20249;-77
2021/05/08 09:43:12;;;;;;;2.20;1.30;;;;;;;14.10;35.33;95717.41;5096023;28;20180;-77
2021/05/08 09:45:40;;;;;;;1.67;1.40;;;;;;;13.83;35.54;95718.56;5094374;28;20180;-79
2021/05/08 09:48:30;;;;;;;1.60;1.50;;;;;;;13.67;35.11;95711.53;5096541;28;20200;-77
2021/05/08 09:51:25;;;;;;;2.23;1.20;;;;;;;13.16;35.49;95712.56;5095440;28;20628;-79
2021/05/08 09:53:52;;;;;;;1.70;1.23;;;;;;;12.96;36.26;95705.00;5079900;28;20580;-78
2021/05/08 09:56:37;;;;;;;2.07;1.30;;;;;;;13.28;35.91;95708.72;5077539;28;20184;-80
2021/05/08 09:59:23;;;;;;;1.57;1.13;;;;;;;13.22;36.14;95706.75;5095633;28;20180;-79
2021/05/08 10:01:49;;;;;;;2.40;1.57;;;;;;;13.15;36.33;95706.53;5095577;28;20168;-80
2021/05/08 10:04:33;;;;;;;3.53;1.50;;;;;;;12.95;35.71;95706.00;5078218;28;20267;-78
2021/05/08 10:07:13;;;;;;;2.87;1.53;;;;;;;12.83;35.63;95699.44;5095081;28;20196;-78
2021/05/08 10:09:40;;;;;;;1.60;1.43;;;;;;;12.85;35.08;95694.06;5078273;28;20198;-76
2021/05/08 10:12:08;;;;;;;1.87;1.30;;;;;;;13.20;36.57;95693.88;5078297;28;20177;-79
2021/05/08 10:14:34;;;;;;;1.83;1.13;;;;;;;13.32;36.68;95692.56;5094625;28;20213;-79
2021/05/08 10:16:59;;;;;;;2.43;1.50;;;;;;;13.38;35.30;95682.50;5095166;28;20207;-77
2021/05/08 10:19:27;;;;;;;2.90;1.63;;;;;;;13.53;35.65;95683.50;5078272;28;20180;-77
2021/05/08 10:21:53;;;;;;;2.03;1.50;;;;;;;13.60;35.86;95682.69;5096166;28;20606;-76
2021/05/08 10:24:21;;;;;;;2.30;1.40;;;;;;;13.67;35.36;95679.41;5095474;28;20204;-77
2021/05/08 10:26:46;;;;;;;1.73;1.33;;;;;;;13.45;35.32;95670.44;5077414;28;20204;-77
2021/05/08 10:29:12;;;;;;;1.60;1.47;;;;;;;13.58;35.75;95668.16;5093004;28;20208;-77
2021/05/08 10:31:37;;;;;;;3.23;1.30;;;;;;;13.67;35.52;95667.16;5094438;28;20210;-76
2021/05/08 10:34:03;;;;;;;4.90;1.20;;;;;;;13.56;35.38;95670.13;5094072;28;20197;-77
2021/05/08 10:36:45;;;;;;;3.27;1.33;;;;;;;13.56;38.13;95660.50;5092868;28;20188;-77
2021/05/08 10:39:10;;;;;;;3.83;1.50;;;;;;;13.59;35.42;95665.38;5095319;28;20651;-77
2021/05/08 10:41:52;;;;;;;3.80;1.50;;;;;;;13.08;36.48;95661.25;5094439;28;20251;-78
2021/05/08 10:44:45;;;;;;;1.37;1.20;;;;;;;13.57;35.96;95661.31;5093512;28;20226;-78
2021/05/08 10:47:14;;;;;;;1.67;1.50;;;;;;;13.74;35.33;95651.69;5093833;28;20664;-78
2021/05/08 10:49:42;;;;;;;1.70;1.40;;;;;;;14.25;34.22;95662.69;5077564;28;20180;-78
2021/05/08 10:52:08;;;;;;;2.00;1.20;;;;;;;13.74;36.87;95660.31;5093127;28;20241;-78
2021/05/08 10:54:43;;;;;;;1.53;1.27;;;;;;;14.01;34.92;95653.13;5093060;28;20212;-78
2021/05/08 10:57:19;;;;;;;2.23;1.37;;;;;;;14.15;35.42;95648.03;5093229;28;20196;-78
2021/05/08 11:00:07;;;;;;;3.73;1.33;;;;;;;14.52;34.46;95657.09;5093923;28;20180;-78
2021/05/08 11:02:59;;;;;;;2.07;1.63;;;;;;;14.91;35.33;95648.41;5084482;28;20249;-79
2021/05/08 11:05:33;;;;;;;2.40;1.70;;;;;;;14.88;33.95;95643.53;5072766;28;20189;-77
2021/05/08 11:07:59;;;;;;;2.50;1.63;;;;;;;14.20;35.94;95638.88;5073558;28;20200;-78
2021/05/08 11:10:33;;;;;;;4.00;1.50;;;;;;;14.03;36.05;95635.47;5071305;28;20192;-77
2021/05/08 11:13:06;;;;;;;3.03;1.43;;;;;;;14.53;33.92;95637.00;5072480;28;20628;-78
2021/05/08 11:16:02;;;;;;;2.07;1.30;;;;;;;14.86;34.73;95645.50;5073089;28;20181;-78
2021/05/08 11:18:31;;;;;;;2.00;1.70;;;;;;;14.55;36.43;95642.88;5072518;28;20660;-78
2021/05/08 11:21:04;;;;;;;2.37;1.40;;;;;;;14.76;35.14;95627.44;5073574;28;20182;-78
2021/05/08 11:23:52;;;;;;;3.20;2.00;;;;;;;14.68;36.31;95617.81;5071585;28;20169;-78
2021/05/08 11:26:27;;;;;;;2.73;2.10;;;;;;;14.89;34.65;95609.38;5071370;28;20710;-78
2021/05/08 11:29:15;;;;;;;2.10;1.90;;;;;;;14.93;34.89;95613.28;5072559;28;20220;-79
2021/05/08 11:31:41;;;;;;;3.70;2.00;;;;;;;15.01;36.09;95618.44;5072297;28;20593;-78
2021/05/08 11:34:07;;;;;;;1.67;1.27;;;;;;;14.78;34.32;95611.56;5073080;28;20208;-79
2021/05/08 11:36:51;;;;;;;2.60;1.40;;;;;;;15.07;35.60;95608.28;5071422;28;20270;-79